sensor_id;sensor_type;location;lat;lon;timestamp;P1;durP1;ratioP1;P2;durP2;ratioP2
12163;SDS011;6145;50.192;10.064;2023-07-20T00:02:04;3.90;;;3.50;;
12163;SDS011;6145;50.192;10.064;2023-07-20T00:04:32;5.30;;;3.60;;
12163;SDS011;6145;50.192;10.064;2023-07-20T00:06:59;3.80;;;3.37;;
12163;SDS011;6145;50.192;10.064;2023-07-20T00:09:26;4.90;;;3.20;;
12163;SDS011;6145;50.192;10.064;2023-07-20T00:11:53;4.03;;;3.00;;
12163;SDS011;6145;50.192;10.064;2023-07-20T00:14:21;3.73;;;3.33;;
12163;SDS011;6145;50.192;10.064;2023-07-20T00:16:49;4.17;;;3.30;;
12163;SDS011;6145;50.192;10.064;2023-07-20T00:19:20;4.17;;;2.70;;
12163;SDS011;6145;50.192;10.064;2023-07-20T00:21:47;3.20;;;2.90;;
12163;SDS011;6145;50.192;10.064;2023-07-20T00:24:14;3.63;;;2.83;;
12163;SDS011;6145;50.192;10.064;2023-07-20T00:26:41;3.23;;;2.60;;
12163;SDS011;6145;50.192;10.064;2023-07-20T00:29:08;2.90;;;2.50;;
12163;SDS011;6145;50.192;10.064;2023-07-20T00:31:37;3.27;;;2.83;;
12163;SDS011;6145;50.192;10.064;2023-07-20T00:34:03;3.40;;;3.00;;
12163;SDS011;6145;50.192;10.064;2023-07-20T00:36:30;3.80;;;2.87;;
12163;SDS011;6145;50.192;10.064;2023-07-20T00:38:57;3.43;;;3.13;;
12163;SDS011;6145;50.192;10.064;2023-07-20T00:41:24;4.43;;;3.10;;
12163;SDS011;6145;50.192;10.064;2023-07-20T00:43:54;3.70;;;2.97;;
12163;SDS011;6145;50.192;10.064;2023-07-20T00:46:21;4.23;;;3.00;;
12163;SDS011;6145;50.192;10.064;2023-07-20T00:48:50;3.43;;;2.80;;
12163;SDS011;6145;50.192;10.064;2023-07-20T00:51:18;3.07;;;2.63;;
12163;SDS011;6145;50.192;10.064;2023-07-20T00:53:49;3.30;;;2.87;;
12163;SDS011;6145;50.192;10.064;2023-07-20T00:56:16;3.97;;;2.70;;
12163;SDS011;6145;50.192;10.064;2023-07-20T00:58:42;4.33;;;2.90;;
12163;SDS011;6145;50.192;10.064;2023-07-20T01:01:10;4.57;;;2.93;;
12163;SDS011;6145;50.192;10.064;2023-07-20T01:03:36;3.23;;;2.40;;
12163;SDS011;6145;50.192;10.064;2023-07-20T01:06:14;3.33;;;2.50;;
12163;SDS011;6145;50.192;10.064;2023-07-20T01:08:47;3.10;;;2.80;;
12163;SDS011;6145;50.192;10.064;2023-07-20T01:11:35;3.60;;;3.00;;
12163;SDS011;6145;50.192;10.064;2023-07-20T01:14:08;2.90;;;2.60;;
12163;SDS011;6145;50.192;10.064;2023-07-20T01:16:35;4.17;;;2.90;;
12163;SDS011;6145;50.192;10.064;2023-07-20T01:19:02;2.90;;;2.70;;
12163;SDS011;6145;50.192;10.064;2023-07-20T01:21:33;3.50;;;2.70;;
12163;SDS011;6145;50.192;10.064;2023-07-20T01:29:55;2.23;;;2.00;;
12163;SDS011;6145;50.192;10.064;2023-07-20T01:32:42;2.80;;;2.50;;
12163;SDS011;6145;50.192;10.064;2023-07-20T01:35:10;2.60;;;2.40;;
12163;SDS011;6145;50.192;10.064;2023-07-20T01:37:41;3.90;;;2.53;;
12163;SDS011;6145;50.192;10.064;2023-07-20T01:40:10;2.93;;;2.33;;
12163;SDS011;6145;50.192;10.064;2023-07-20T01:42:38;2.43;;;2.23;;
12163;SDS011;6145;50.192;10.064;2023-07-20T01:45:09;3.27;;;2.87;;
12163;SDS011;6145;50.192;10.064;2023-07-20T01:47:36;3.87;;;2.43;;
12163;SDS011;6145;50.192;10.064;2023-07-20T01:50:04;3.40;;;2.40;;
12163;SDS011;6145;50.192;10.064;2023-07-20T01:52:32;4.80;;;2.93;;
12163;SDS011;6145;50.192;10.064;2023-07-20T01:54:59;3.00;;;2.63;;
12163;SDS011;6145;50.192;10.064;2023-07-20T01:57:26;5.30;;;2.63;;
12163;SDS011;6145;50.192;10.064;2023-07-20T01:59:53;2.73;;;2.33;;
12163;SDS011;6145;50.192;10.064;2023-07-20T02:02:19;3.70;;;2.60;;
12163;SDS011;6145;50.192;10.064;2023-07-20T02:04:46;3.53;;;2.73;;
12163;SDS011;6145;50.192;10.064;2023-07-20T02:07:14;3.10;;;2.73;;
12163;SDS011;6145;50.192;10.064;2023-07-20T02:09:41;4.37;;;2.83;;
12163;SDS011;6145;50.192;10.064;2023-07-20T02:12:08;2.73;;;2.53;;
12163;SDS011;6145;50.192;10.064;2023-07-20T02:14:35;4.60;;;2.90;;
12163;SDS011;6145;50.192;10.064;2023-07-20T02:17:02;3.03;;;2.70;;
12163;SDS011;6145;50.192;10.064;2023-07-20T02:19:29;2.60;;;2.40;;
12163;SDS011;6145;50.192;10.064;2023-07-20T02:21:56;4.07;;;3.00;;
12163;SDS011;6145;50.192;10.064;2023-07-20T02:24:24;3.07;;;2.77;;
12163;SDS011;6145;50.192;10.064;2023-07-20T02:26:51;2.77;;;2.53;;
12163;SDS011;6145;50.192;10.064;2023-07-20T02:29:18;2.50;;;2.30;;
12163;SDS011;6145;50.192;10.064;2023-07-20T02:31:45;2.80;;;2.43;;
12163;SDS011;6145;50.192;10.064;2023-07-20T02:34:11;2.90;;;2.70;;
12163;SDS011;6145;50.192;10.064;2023-07-20T02:36:38;2.77;;;2.40;;
12163;SDS011;6145;50.192;10.064;2023-07-20T02:39:07;3.07;;;2.60;;
12163;SDS011;6145;50.192;10.064;2023-07-20T02:41:36;3.90;;;3.00;;
12163;SDS011;6145;50.192;10.064;2023-07-20T02:44:02;3.83;;;2.23;;
12163;SDS011;6145;50.192;10.064;2023-07-20T02:46:29;5.10;;;2.87;;
12163;SDS011;6145;50.192;10.064;2023-07-20T02:48:56;3.33;;;2.53;;
12163;SDS011;6145;50.192;10.064;2023-07-20T02:51:23;3.30;;;3.00;;
12163;SDS011;6145;50.192;10.064;2023-07-20T02:53:50;3.10;;;2.37;;
12163;SDS011;6145;50.192;10.064;2023-07-20T02:56:16;3.07;;;2.77;;
12163;SDS011;6145;50.192;10.064;2023-07-20T02:58:45;4.47;;;2.60;;
12163;SDS011;6145;50.192;10.064;2023-07-20T03:01:12;3.03;;;2.63;;
12163;SDS011;6145;50.192;10.064;2023-07-20T03:03:40;2.90;;;2.60;;
12163;SDS011;6145;50.192;10.064;2023-07-20T03:06:11;2.80;;;2.60;;
12163;SDS011;6145;50.192;10.064;2023-07-20T03:08:39;2.93;;;2.70;;
12163;SDS011;6145;50.192;10.064;2023-07-20T03:11:06;3.07;;;2.77;;
12163;SDS011;6145;50.192;10.064;2023-07-20T03:13:33;3.40;;;3.07;;
12163;SDS011;6145;50.192;10.064;2023-07-20T03:16:01;3.27;;;2.80;;
12163;SDS011;6145;50.192;10.064;2023-07-20T03:18:28;4.37;;;2.80;;
12163;SDS011;6145;50.192;10.064;2023-07-20T03:20:55;4.30;;;2.80;;
12163;SDS011;6145;50.192;10.064;2023-07-20T03:23:21;4.47;;;3.10;;
12163;SDS011;6145;50.192;10.064;2023-07-20T03:25:48;7.03;;;3.90;;
12163;SDS011;6145;50.192;10.064;2023-07-20T03:28:15;9.47;;;4.50;;
12163;SDS011;6145;50.192;10.064;2023-07-20T03:30:42;5.73;;;3.90;;
12163;SDS011;6145;50.192;10.064;2023-07-20T03:33:10;6.07;;;4.37;;
12163;SDS011;6145;50.192;10.064;2023-07-20T03:35:36;5.00;;;3.87;;
12163;SDS011;6145;50.192;10.064;2023-07-20T03:38:03;6.67;;;4.47;;
12163;SDS011;6145;50.192;10.064;2023-07-20T03:40:30;7.37;;;4.80;;
12163;SDS011;6145;50.192;10.064;2023-07-20T03:42:57;6.50;;;4.60;;
12163;SDS011;6145;50.192;10.064;2023-07-20T03:45:23;6.97;;;4.63;;
12163;SDS011;6145;50.192;10.064;2023-07-20T03:47:50;7.57;;;4.03;;
12163;SDS011;6145;50.192;10.064;2023-07-20T03:50:18;8.10;;;4.73;;
12163;SDS011;6145;50.192;10.064;2023-07-20T03:52:45;7.20;;;5.00;;
12163;SDS011;6145;50.192;10.064;2023-07-20T03:55:12;10.10;;;6.10;;
12163;SDS011;6145;50.192;10.064;2023-07-20T03:57:39;10.20;;;6.47;;
12163;SDS011;6145;50.192;10.064;2023-07-20T04:00:06;7.60;;;5.00;;
12163;SDS011;6145;50.192;10.064;2023-07-20T04:02:34;6.63;;;5.07;;
12163;SDS011;6145;50.192;10.064;2023-07-20T04:05:01;6.00;;;4.63;;
12163;SDS011;6145;50.192;10.064;2023-07-20T04:07:29;6.53;;;4.70;;
12163;SDS011;6145;50.192;10.064;2023-07-20T04:09:56;5.97;;;4.37;;
12163;SDS011;6145;50.192;10.064;2023-07-20T04:12:23;5.30;;;4.13;;
12163;SDS011;6145;50.192;10.064;2023-07-20T04:14:49;4.87;;;3.60;;
12163;SDS011;6145;50.192;10.064;2023-07-20T04:17:16;3.33;;;2.90;;
12163;SDS011;6145;50.192;10.064;2023-07-20T04:19:44;4.67;;;3.50;;
12163;SDS011;6145;50.192;10.064;2023-07-20T04:22:13;4.03;;;3.30;;
12163;SDS011;6145;50.192;10.064;2023-07-20T04:24:43;3.53;;;2.93;;
12163;SDS011;6145;50.192;10.064;2023-07-20T04:27:09;3.50;;;3.03;;
12163;SDS011;6145;50.192;10.064;2023-07-20T04:29:36;3.20;;;2.90;;
12163;SDS011;6145;50.192;10.064;2023-07-20T04:32:03;3.70;;;2.90;;
12163;SDS011;6145;50.192;10.064;2023-07-20T04:34:33;4.03;;;3.43;;
12163;SDS011;6145;50.192;10.064;2023-07-20T04:37:02;3.50;;;3.20;;
12163;SDS011;6145;50.192;10.064;2023-07-20T04:42:51;4.63;;;3.17;;
12163;SDS011;6145;50.192;10.064;2023-07-20T04:45:33;3.47;;;3.13;;
12163;SDS011;6145;50.192;10.064;2023-07-20T04:48:00;3.83;;;3.00;;
12163;SDS011;6145;50.192;10.064;2023-07-20T04:50:27;3.20;;;2.67;;
12163;SDS011;6145;50.192;10.064;2023-07-20T04:52:55;3.90;;;3.17;;
12163;SDS011;6145;50.192;10.064;2023-07-20T04:55:22;4.63;;;3.23;;
12163;SDS011;6145;50.192;10.064;2023-07-20T04:57:48;3.80;;;3.40;;
12163;SDS011;6145;50.192;10.064;2023-07-20T05:00:17;4.50;;;3.40;;
12163;SDS011;6145;50.192;10.064;2023-07-20T05:02:50;4.07;;;3.67;;
12163;SDS011;6145;50.192;10.064;2023-07-20T05:05:17;4.73;;;3.87;;
12163;SDS011;6145;50.192;10.064;2023-07-20T05:07:51;4.53;;;3.30;;
12163;SDS011;6145;50.192;10.064;2023-07-20T05:10:18;5.23;;;4.23;;
12163;SDS011;6145;50.192;10.064;2023-07-20T05:16:19;5.10;;;3.90;;
12163;SDS011;6145;50.192;10.064;2023-07-20T05:18:45;6.67;;;4.63;;
12163;SDS011;6145;50.192;10.064;2023-07-20T05:21:13;5.77;;;3.73;;
12163;SDS011;6145;50.192;10.064;2023-07-20T05:23:42;5.50;;;4.00;;
12163;SDS011;6145;50.192;10.064;2023-07-20T05:29:14;4.80;;;3.77;;
12163;SDS011;6145;50.192;10.064;2023-07-20T05:31:42;3.87;;;3.53;;
12163;SDS011;6145;50.192;10.064;2023-07-20T05:34:09;4.43;;;3.67;;
12163;SDS011;6145;50.192;10.064;2023-07-20T05:36:36;6.50;;;3.87;;
12163;SDS011;6145;50.192;10.064;2023-07-20T05:39:03;3.87;;;3.30;;
12163;SDS011;6145;50.192;10.064;2023-07-20T05:41:30;5.80;;;3.93;;
12163;SDS011;6145;50.192;10.064;2023-07-20T05:43:57;7.03;;;4.17;;
12163;SDS011;6145;50.192;10.064;2023-07-20T05:46:24;7.33;;;4.10;;
12163;SDS011;6145;50.192;10.064;2023-07-20T05:48:52;6.90;;;4.00;;
12163;SDS011;6145;50.192;10.064;2023-07-20T05:51:21;6.33;;;4.00;;
12163;SDS011;6145;50.192;10.064;2023-07-20T05:53:47;6.13;;;4.30;;
12163;SDS011;6145;50.192;10.064;2023-07-20T05:56:14;6.07;;;4.40;;
12163;SDS011;6145;50.192;10.064;2023-07-20T05:58:41;4.77;;;4.37;;
12163;SDS011;6145;50.192;10.064;2023-07-20T06:01:08;5.60;;;4.20;;
12163;SDS011;6145;50.192;10.064;2023-07-20T06:03:35;5.07;;;4.40;;
12163;SDS011;6145;50.192;10.064;2023-07-20T06:06:04;7.47;;;4.30;;
12163;SDS011;6145;50.192;10.064;2023-07-20T06:08:31;4.97;;;4.47;;
12163;SDS011;6145;50.192;10.064;2023-07-20T06:10:58;4.97;;;4.15;;
12163;SDS011;6145;50.192;10.064;2023-07-20T06:13:25;4.60;;;4.20;;
12163;SDS011;6145;50.192;10.064;2023-07-20T06:15:52;4.45;;;4.05;;
12163;SDS011;6145;50.192;10.064;2023-07-20T06:18:20;5.13;;;3.90;;
12163;SDS011;6145;50.192;10.064;2023-07-20T06:20:48;4.85;;;4.40;;
12163;SDS011;6145;50.192;10.064;2023-07-20T06:23:18;4.82;;;4.00;;
12163;SDS011;6145;50.192;10.064;2023-07-20T06:25:44;4.18;;;3.85;;
12163;SDS011;6145;50.192;10.064;2023-07-20T06:28:11;4.90;;;4.40;;
12163;SDS011;6145;50.192;10.064;2023-07-20T06:30:38;5.90;;;4.50;;
12163;SDS011;6145;50.192;10.064;2023-07-20T06:33:06;4.20;;;3.90;;
12163;SDS011;6145;50.192;10.064;2023-07-20T06:35:33;6.63;;;4.60;;
12163;SDS011;6145;50.192;10.064;2023-07-20T06:38:00;4.72;;;4.43;;
12163;SDS011;6145;50.192;10.064;2023-07-20T06:40:30;5.18;;;4.78;;
12163;SDS011;6145;50.192;10.064;2023-07-20T06:42:57;6.13;;;5.63;;
12163;SDS011;6145;50.192;10.064;2023-07-20T06:45:23;5.10;;;4.63;;
12163;SDS011;6145;50.192;10.064;2023-07-20T06:47:50;6.28;;;5.88;;
12163;SDS011;6145;50.192;10.064;2023-07-20T06:50:17;10.90;;;10.27;;
12163;SDS011;6145;50.192;10.064;2023-07-20T06:52:44;5.22;;;4.82;;
12163;SDS011;6145;50.192;10.064;2023-07-20T06:55:13;4.13;;;3.70;;
12163;SDS011;6145;50.192;10.064;2023-07-20T06:57:41;3.42;;;2.85;;
12163;SDS011;6145;50.192;10.064;2023-07-20T07:00:08;4.07;;;2.92;;
12163;SDS011;6145;50.192;10.064;2023-07-20T07:02:36;3.63;;;2.50;;
12163;SDS011;6145;50.192;10.064;2023-07-20T07:05:03;2.78;;;2.30;;
12163;SDS011;6145;50.192;10.064;2023-07-20T07:07:30;3.20;;;2.88;;
12163;SDS011;6145;50.192;10.064;2023-07-20T07:09:57;3.50;;;2.80;;
12163;SDS011;6145;50.192;10.064;2023-07-20T07:12:24;5.32;;;2.65;;
12163;SDS011;6145;50.192;10.064;2023-07-20T07:14:53;4.28;;;2.78;;
12163;SDS011;6145;50.192;10.064;2023-07-20T07:17:19;5.65;;;2.70;;
12163;SDS011;6145;50.192;10.064;2023-07-20T07:19:46;3.70;;;2.85;;
12163;SDS011;6145;50.192;10.064;2023-07-20T07:22:13;3.78;;;2.47;;
12163;SDS011;6145;50.192;10.064;2023-07-20T07:24:40;5.45;;;3.10;;
12163;SDS011;6145;50.192;10.064;2023-07-20T07:27:08;2.40;;;2.20;;
12163;SDS011;6145;50.192;10.064;2023-07-20T07:29:35;2.72;;;2.47;;
12163;SDS011;6145;50.192;10.064;2023-07-20T07:32:03;4.03;;;2.60;;
12163;SDS011;6145;50.192;10.064;2023-07-20T07:34:31;3.05;;;2.75;;
12163;SDS011;6145;50.192;10.064;2023-07-20T07:36:59;3.38;;;2.50;;
12163;SDS011;6145;50.192;10.064;2023-07-20T07:39:26;4.15;;;3.03;;
12163;SDS011;6145;50.192;10.064;2023-07-20T07:41:55;3.22;;;2.92;;
12163;SDS011;6145;50.192;10.064;2023-07-20T07:44:22;5.45;;;3.10;;
12163;SDS011;6145;50.192;10.064;2023-07-20T07:46:49;3.83;;;2.90;;
12163;SDS011;6145;50.192;10.064;2023-07-20T07:49:18;3.35;;;2.70;;
12163;SDS011;6145;50.192;10.064;2023-07-20T07:51:45;3.15;;;2.95;;
12163;SDS011;6145;50.192;10.064;2023-07-20T07:54:12;4.55;;;3.22;;
12163;SDS011;6145;50.192;10.064;2023-07-20T07:56:38;4.72;;;2.80;;
12163;SDS011;6145;50.192;10.064;2023-07-20T07:59:06;3.40;;;3.10;;
12163;SDS011;6145;50.192;10.064;2023-07-20T08:01:32;2.80;;;2.60;;
12163;SDS011;6145;50.192;10.064;2023-07-20T08:04:00;3.17;;;2.42;;
12163;SDS011;6145;50.192;10.064;2023-07-20T08:06:30;3.22;;;2.78;;
12163;SDS011;6145;50.192;10.064;2023-07-20T08:08:57;3.25;;;2.67;;
12163;SDS011;6145;50.192;10.064;2023-07-20T08:11:24;2.95;;;2.63;;
12163;SDS011;6145;50.192;10.064;2023-07-20T08:13:51;3.10;;;2.63;;
12163;SDS011;6145;50.192;10.064;2023-07-20T08:16:17;3.33;;;2.60;;
12163;SDS011;6145;50.192;10.064;2023-07-20T08:18:44;2.92;;;2.70;;
12163;SDS011;6145;50.192;10.064;2023-07-20T08:21:11;2.95;;;2.60;;
12163;SDS011;6145;50.192;10.064;2023-07-20T08:23:39;2.97;;;2.67;;
12163;SDS011;6145;50.192;10.064;2023-07-20T08:26:06;3.33;;;2.95;;
12163;SDS011;6145;50.192;10.064;2023-07-20T08:28:33;3.45;;;3.15;;
12163;SDS011;6145;50.192;10.064;2023-07-20T08:31:00;4.53;;;2.90;;
12163;SDS011;6145;50.192;10.064;2023-07-20T08:33:28;3.28;;;2.90;;
12163;SDS011;6145;50.192;10.064;2023-07-20T08:35:58;4.30;;;2.92;;
12163;SDS011;6145;50.192;10.064;2023-07-20T08:38:26;3.20;;;2.90;;
12163;SDS011;6145;50.192;10.064;2023-07-20T08:40:54;3.08;;;2.80;;
12163;SDS011;6145;50.192;10.064;2023-07-20T08:43:20;5.15;;;3.28;;
12163;SDS011;6145;50.192;10.064;2023-07-20T08:45:49;4.28;;;3.03;;
12163;SDS011;6145;50.192;10.064;2023-07-20T08:48:18;3.05;;;2.67;;
12163;SDS011;6145;50.192;10.064;2023-07-20T08:50:47;4.68;;;3.13;;
12163;SDS011;6145;50.192;10.064;2023-07-20T08:53:15;5.95;;;3.03;;
12163;SDS011;6145;50.192;10.064;2023-07-20T08:55:42;3.13;;;2.85;;
12163;SDS011;6145;50.192;10.064;2023-07-20T08:58:13;4.65;;;3.65;;
12163;SDS011;6145;50.192;10.064;2023-07-20T09:00:41;3.28;;;2.83;;
12163;SDS011;6145;50.192;10.064;2023-07-20T09:03:09;3.30;;;2.95;;
12163;SDS011;6145;50.192;10.064;2023-07-20T09:05:39;4.15;;;3.08;;
12163;SDS011;6145;50.192;10.064;2023-07-20T09:08:06;3.40;;;2.80;;
12163;SDS011;6145;50.192;10.064;2023-07-20T09:10:33;4.80;;;2.72;;
12163;SDS011;6145;50.192;10.064;2023-07-20T09:13:03;3.05;;;2.78;;
12163;SDS011;6145;50.192;10.064;2023-07-20T09:15:36;3.53;;;3.00;;
12163;SDS011;6145;50.192;10.064;2023-07-20T09:20:51;3.70;;;3.08;;
12163;SDS011;6145;50.192;10.064;2023-07-20T09:23:19;4.30;;;2.78;;
12163;SDS011;6145;50.192;10.064;2023-07-20T09:25:46;4.38;;;2.95;;
12163;SDS011;6145;50.192;10.064;2023-07-20T09:28:16;4.13;;;3.00;;
12163;SDS011;6145;50.192;10.064;2023-07-20T09:30:49;5.03;;;3.10;;
12163;SDS011;6145;50.192;10.064;2023-07-20T09:33:21;4.15;;;2.70;;
12163;SDS011;6145;50.192;10.064;2023-07-20T09:35:50;5.43;;;3.03;;
12163;SDS011;6145;50.192;10.064;2023-07-20T09:38:21;2.40;;;2.20;;
12163;SDS011;6145;50.192;10.064;2023-07-20T09:40:54;5.95;;;2.72;;
12163;SDS011;6145;50.192;10.064;2023-07-20T09:43:21;3.40;;;3.10;;
12163;SDS011;6145;50.192;10.064;2023-07-20T09:45:52;2.75;;;2.50;;
12163;SDS011;6145;50.192;10.064;2023-07-20T09:48:33;2.63;;;2.13;;
12163;SDS011;6145;50.192;10.064;2023-07-20T09:51:14;2.67;;;2.28;;
12163;SDS011;6145;50.192;10.064;2023-07-20T09:53:47;3.63;;;2.83;;
12163;SDS011;6145;50.192;10.064;2023-07-20T09:56:24;3.65;;;2.70;;
12163;SDS011;6145;50.192;10.064;2023-07-20T09:58:52;3.70;;;2.70;;
12163;SDS011;6145;50.192;10.064;2023-07-20T10:01:23;3.03;;;2.30;;
12163;SDS011;6145;50.192;10.064;2023-07-20T10:03:53;3.08;;;2.75;;
12163;SDS011;6145;50.192;10.064;2023-07-20T10:06:23;2.83;;;2.63;;
12163;SDS011;6145;50.192;10.064;2023-07-20T10:08:52;3.88;;;2.88;;
12163;SDS011;6145;50.192;10.064;2023-07-20T10:11:22;2.63;;;2.35;;
12163;SDS011;6145;50.192;10.064;2023-07-20T10:13:56;3.33;;;2.80;;
12163;SDS011;6145;50.192;10.064;2023-07-20T10:16:28;2.78;;;2.30;;
12163;SDS011;6145;50.192;10.064;2023-07-20T10:26:29;3.58;;;2.30;;
12163;SDS011;6145;50.192;10.064;2023-07-20T15:10:30;2.13;;;1.92;;
12163;SDS011;6145;50.192;10.064;2023-07-20T17:06:21;3.15;;;2.65;;
12163;SDS011;6145;50.192;10.064;2023-07-20T17:08:48;2.88;;;2.67;;
12163;SDS011;6145;50.192;10.064;2023-07-20T17:11:15;2.90;;;2.70;;
12163;SDS011;6145;50.192;10.064;2023-07-20T17:13:42;3.38;;;2.85;;
12163;SDS011;6145;50.192;10.064;2023-07-20T17:16:08;4.40;;;2.83;;
12163;SDS011;6145;50.192;10.064;2023-07-20T17:18:35;3.05;;;2.38;;
12163;SDS011;6145;50.192;10.064;2023-07-20T17:21:02;2.83;;;2.63;;
12163;SDS011;6145;50.192;10.064;2023-07-20T17:23:30;2.90;;;2.70;;
12163;SDS011;6145;50.192;10.064;2023-07-20T17:25:57;2.65;;;2.53;;
12163;SDS011;6145;50.192;10.064;2023-07-20T17:28:24;2.88;;;2.67;;
12163;SDS011;6145;50.192;10.064;2023-07-20T17:30:58;3.05;;;2.85;;
12163;SDS011;6145;50.192;10.064;2023-07-20T17:33:25;2.95;;;2.75;;
12163;SDS011;6145;50.192;10.064;2023-07-20T17:35:52;2.90;;;2.65;;
12163;SDS011;6145;50.192;10.064;2023-07-20T17:38:20;3.03;;;2.70;;
12163;SDS011;6145;50.192;10.064;2023-07-20T17:40:48;2.70;;;2.28;;
12163;SDS011;6145;50.192;10.064;2023-07-20T17:43:17;2.67;;;2.47;;
12163;SDS011;6145;50.192;10.064;2023-07-20T17:45:47;2.45;;;2.25;;
12163;SDS011;6145;50.192;10.064;2023-07-20T17:48:14;2.88;;;2.65;;
12163;SDS011;6145;50.192;10.064;2023-07-20T17:50:41;2.60;;;2.40;;
12163;SDS011;6145;50.192;10.064;2023-07-20T19:57:33;2.75;;;2.55;;
12163;SDS011;6145;50.192;10.064;2023-07-20T20:00:00;3.93;;;2.57;;
12163;SDS011;6145;50.192;10.064;2023-07-20T20:02:31;3.05;;;2.75;;
12163;SDS011;6145;50.192;10.064;2023-07-20T20:04:58;3.17;;;2.87;;
12163;SDS011;6145;50.192;10.064;2023-07-20T20:07:25;2.70;;;2.50;;
12163;SDS011;6145;50.192;10.064;2023-07-20T20:09:55;2.93;;;2.70;;
12163;SDS011;6145;50.192;10.064;2023-07-20T20:12:22;3.55;;;3.20;;
12163;SDS011;6145;50.192;10.064;2023-07-20T20:14:51;3.25;;;2.97;;
12163;SDS011;6145;50.192;10.064;2023-07-20T20:17:25;3.00;;;2.80;;
12163;SDS011;6145;50.192;10.064;2023-07-20T20:20:03;2.72;;;2.53;;
12163;SDS011;6145;50.192;10.064;2023-07-20T20:22:35;3.03;;;2.80;;
12163;SDS011;6145;50.192;10.064;2023-07-20T20:25:11;3.73;;;3.43;;
12163;SDS011;6145;50.192;10.064;2023-07-20T20:27:41;3.23;;;3.00;;
12163;SDS011;6145;50.192;10.064;2023-07-20T20:30:15;3.03;;;2.83;;
12163;SDS011;6145;50.192;10.064;2023-07-20T20:32:44;4.73;;;2.70;;
12163;SDS011;6145;50.192;10.064;2023-07-20T20:35:13;2.80;;;2.60;;
12163;SDS011;6145;50.192;10.064;2023-07-20T20:37:44;3.50;;;3.13;;
12163;SDS011;6145;50.192;10.064;2023-07-20T20:40:14;3.33;;;3.03;;
12163;SDS011;6145;50.192;10.064;2023-07-20T20:42:41;3.30;;;3.00;;
12163;SDS011;6145;50.192;10.064;2023-07-20T20:45:16;3.13;;;2.83;;
12163;SDS011;6145;50.192;10.064;2023-07-20T20:47:45;4.67;;;2.83;;
12163;SDS011;6145;50.192;10.064;2023-07-20T20:50:14;3.27;;;2.90;;
12163;SDS011;6145;50.192;10.064;2023-07-20T20:52:47;3.30;;;3.00;;
12163;SDS011;6145;50.192;10.064;2023-07-20T20:55:26;3.53;;;2.80;;
12163;SDS011;6145;50.192;10.064;2023-07-20T20:57:53;2.80;;;2.60;;
12163;SDS011;6145;50.192;10.064;2023-07-20T21:00:22;3.47;;;3.17;;
12163;SDS011;6145;50.192;10.064;2023-07-20T21:02:51;3.20;;;3.00;;
12163;SDS011;6145;50.192;10.064;2023-07-20T21:05:20;3.20;;;2.93;;
12163;SDS011;6145;50.192;10.064;2023-07-20T21:07:48;3.67;;;2.77;;
12163;SDS011;6145;50.192;10.064;2023-07-20T21:10:16;2.83;;;2.63;;
12163;SDS011;6145;50.192;10.064;2023-07-20T21:12:43;3.13;;;2.83;;
12163;SDS011;6145;50.192;10.064;2023-07-20T21:15:10;2.93;;;2.73;;
12163;SDS011;6145;50.192;10.064;2023-07-20T21:17:38;3.13;;;2.60;;
12163;SDS011;6145;50.192;10.064;2023-07-20T21:20:08;3.27;;;2.97;;
12163;SDS011;6145;50.192;10.064;2023-07-20T21:22:38;3.80;;;3.30;;
12163;SDS011;6145;50.192;10.064;2023-07-20T21:25:07;2.77;;;2.57;;
12163;SDS011;6145;50.192;10.064;2023-07-20T21:27:34;2.97;;;2.77;;
12163;SDS011;6145;50.192;10.064;2023-07-20T21:30:01;2.70;;;2.50;;
12163;SDS011;6145;50.192;10.064;2023-07-20T21:32:28;4.03;;;2.93;;
12163;SDS011;6145;50.192;10.064;2023-07-20T21:34:56;3.37;;;2.83;;
12163;SDS011;6145;50.192;10.064;2023-07-20T21:37:23;2.67;;;2.47;;
12163;SDS011;6145;50.192;10.064;2023-07-20T21:39:50;2.93;;;2.70;;
12163;SDS011;6145;50.192;10.064;2023-07-20T21:42:16;2.73;;;2.53;;
12163;SDS011;6145;50.192;10.064;2023-07-20T21:44:45;2.60;;;2.40;;
12163;SDS011;6145;50.192;10.064;2023-07-20T21:47:11;2.60;;;2.40;;
12163;SDS011;6145;50.192;10.064;2023-07-20T21:49:39;2.70;;;2.50;;
12163;SDS011;6145;50.192;10.064;2023-07-20T21:52:07;3.00;;;2.80;;
12163;SDS011;6145;50.192;10.064;2023-07-20T21:54:34;2.90;;;2.50;;
12163;SDS011;6145;50.192;10.064;2023-07-20T21:57:00;2.63;;;2.43;;
12163;SDS011;6145;50.192;10.064;2023-07-20T21:59:28;2.90;;;2.70;;
12163;SDS011;6145;50.192;10.064;2023-07-20T22:01:55;2.60;;;2.40;;
12163;SDS011;6145;50.192;10.064;2023-07-20T22:04:29;2.27;;;2.10;;
12163;SDS011;6145;50.192;10.064;2023-07-20T22:06:55;2.67;;;2.47;;
12163;SDS011;6145;50.192;10.064;2023-07-20T22:09:24;2.70;;;2.50;;
12163;SDS011;6145;50.192;10.064;2023-07-20T22:11:50;3.07;;;2.77;;
12163;SDS011;6145;50.192;10.064;2023-07-20T22:14:18;2.60;;;2.40;;
12163;SDS011;6145;50.192;10.064;2023-07-20T22:16:45;3.00;;;2.80;;
12163;SDS011;6145;50.192;10.064;2023-07-20T22:19:13;2.67;;;2.47;;
12163;SDS011;6145;50.192;10.064;2023-07-20T22:21:43;2.67;;;2.47;;
12163;SDS011;6145;50.192;10.064;2023-07-20T22:24:10;2.90;;;2.70;;
12163;SDS011;6145;50.192;10.064;2023-07-20T22:26:39;2.73;;;2.53;;
12163;SDS011;6145;50.192;10.064;2023-07-20T22:29:07;4.13;;;2.67;;
12163;SDS011;6145;50.192;10.064;2023-07-20T22:31:34;3.00;;;2.57;;
12163;SDS011;6145;50.192;10.064;2023-07-20T22:34:00;2.80;;;2.47;;
12163;SDS011;6145;50.192;10.064;2023-07-20T22:36:30;2.80;;;2.60;;
12163;SDS011;6145;50.192;10.064;2023-07-20T22:38:56;2.70;;;2.50;;
12163;SDS011;6145;50.192;10.064;2023-07-20T22:41:23;4.33;;;2.70;;
12163;SDS011;6145;50.192;10.064;2023-07-20T22:43:51;2.63;;;2.43;;
12163;SDS011;6145;50.192;10.064;2023-07-20T22:46:18;3.03;;;2.50;;
12163;SDS011;6145;50.192;10.064;2023-07-20T22:48:45;4.83;;;2.40;;
12163;SDS011;6145;50.192;10.064;2023-07-20T22:51:13;3.57;;;2.80;;
12163;SDS011;6145;50.192;10.064;2023-07-20T22:53:40;2.90;;;2.47;;
12163;SDS011;6145;50.192;10.064;2023-07-20T22:56:07;2.37;;;2.17;;
12163;SDS011;6145;50.192;10.064;2023-07-20T22:58:34;3.70;;;2.70;;
12163;SDS011;6145;50.192;10.064;2023-07-20T23:01:03;3.37;;;2.80;;
12163;SDS011;6145;50.192;10.064;2023-07-20T23:03:35;2.90;;;2.70;;
12163;SDS011;6145;50.192;10.064;2023-07-20T23:06:02;2.63;;;2.43;;
12163;SDS011;6145;50.192;10.064;2023-07-20T23:08:30;3.83;;;2.90;;
12163;SDS011;6145;50.192;10.064;2023-07-20T23:10:58;2.90;;;2.60;;
12163;SDS011;6145;50.192;10.064;2023-07-20T23:13:25;3.10;;;2.90;;
12163;SDS011;6145;50.192;10.064;2023-07-20T23:15:53;3.40;;;3.10;;
12163;SDS011;6145;50.192;10.064;2023-07-20T23:18:21;2.77;;;2.57;;
12163;SDS011;6145;50.192;10.064;2023-07-20T23:20:50;2.90;;;2.43;;
12163;SDS011;6145;50.192;10.064;2023-07-20T23:23:18;2.37;;;2.23;;
12163;SDS011;6145;50.192;10.064;2023-07-20T23:25:50;3.53;;;2.70;;
12163;SDS011;6145;50.192;10.064;2023-07-20T23:28:19;2.23;;;2.13;;
12163;SDS011;6145;50.192;10.064;2023-07-20T23:30:46;2.50;;;2.30;;
12163;SDS011;6145;50.192;10.064;2023-07-20T23:33:14;2.80;;;2.57;;
12163;SDS011;6145;50.192;10.064;2023-07-20T23:35:43;2.70;;;2.50;;
12163;SDS011;6145;50.192;10.064;2023-07-20T23:38:10;2.47;;;2.27;;
12163;SDS011;6145;50.192;10.064;2023-07-20T23:40:37;2.60;;;2.40;;
12163;SDS011;6145;50.192;10.064;2023-07-20T23:43:05;2.70;;;2.50;;
12163;SDS011;6145;50.192;10.064;2023-07-20T23:45:32;2.80;;;2.53;;
12163;SDS011;6145;50.192;10.064;2023-07-20T23:48:00;4.70;;;2.33;;
12163;SDS011;6145;50.192;10.064;2023-07-20T23:50:27;2.53;;;2.33;;
12163;SDS011;6145;50.192;10.064;2023-07-20T23:52:56;2.60;;;2.40;;
12163;SDS011;6145;50.192;10.064;2023-07-20T23:55:22;2.50;;;2.30;;
12163;SDS011;6145;50.192;10.064;2023-07-20T23:57:51;2.77;;;2.57;;
